TRLK1: Toronto Lake

Data processed at Sun Apr 30 2017 22:58


All information presented herein is the property of the government of the United States of America and may be revised or deleted at any time without prior notice.
Dissemination of this information without the expressed written consent of the Public Affairs Office, Tulsa District U.S. Army Corps of Engineers is strictly prohibited.
These data are gathered electronically and, as presented, have not undergone any form of quality control. These data are not guaranteed to be valid or correct.
Go to home page.
Go to station list.
Go to station map.

Upstream stations:

Downstream station:
Previous Day
Next Day
Current Day
    
SHEF ID:       TRLK1     Toronto Lake
STATION TYPE:  RESERVOIR
Normal Pool:  Bottom =   896.00, Top =   901.50

               PRECIP ELEVATION   STORAGE    INFLOW   RELEASE  AIR-TEMP  WIND-DIRWIND-SPEED REL-HUMID SOLAR-RAD   VOLTAGE  BAT-LOAD
                   in        ft     ac-ft       cfs       cfs         F       deg       mph         %      W/m2      volt      volt
              Ccp-Rev   Ccp-Rev   Ccp-Rev  Regi-Rev  Regi-Rev   Ccp-Rev   Ccp-Rev   Ccp-Rev   Ccp-Rev   Ccp-Rev   Ccp-Rev   Ccp-Rev
(US/Central)
04/30 00:00      0.00    906.37     30410     16800         6     52.57    122.50      5.70    100.26      0.00     13.50     13.37
04/30 01:00      0.00    906.77     31819     16799         6     50.22    121.10      5.00    100.17      0.00     13.50     13.37
04/30 02:00      0.00    907.14     33122     16118         6     48.99    125.80      4.70    100.40      0.00     13.50     13.37
04/30 03:00      0.02    907.52     34460     15265         6     48.47    121.10      5.10    100.40      0.00     13.49     13.37
04/30 04:00      0.02    907.86     35658     14839         7     47.91    130.10      5.30    100.40      0.00     13.49     13.37
04/30 05:00      0.03    908.16     36715     14157         7     48.02    131.30      4.60    100.40      0.00     13.50     13.37
04/30 06:00      0.04    908.51     37948     13601         7     48.33    199.00      4.00    100.40      0.00     13.49     13.37
04/30 07:00      0.01    908.80     38969     13442         7     48.38    155.20      4.40    100.40      0.00     13.50     13.37
04/30 08:00      0.00    909.10     40078     13818         7     48.76    195.30      3.70    100.40      3.20     13.50     13.37
04/30 09:00      0.00    909.38     41210     13573         7     49.84    199.90      8.10     99.47     54.60     13.49     13.37
04/30 10:00      0.00    909.68     42422     13869         7     49.53    203.10      9.50     94.82     94.30     13.49     13.37
04/30 11:00      0.00    909.96     43553     13563         7     49.80    196.70      7.30     91.09    170.20     13.50     13.37
04/30 12:00      0.00    910.22     44698     13419         7     50.95    181.90      7.30     92.91    311.70     13.50     13.21
04/30 13:00      0.01    910.44     45680     12971         7     51.60    193.90     11.90     78.58    325.70     13.49     13.37
04/30 14:00      0.00    910.68     46752     12768         7     50.09    198.40     13.10     72.90    288.70     13.49     13.37
04/30 15:00      0.00    910.91     47779     12163         7     50.81    196.00     10.80     70.35    527.30     13.49     13.37
04/30 16:00      0.00    911.13     48827     12068         7     50.67    194.10     13.80     65.48    473.80     13.49     13.37
04/30 17:00      0.00    911.31     49720     11637         7     48.87    194.60     11.00     73.65    323.60     13.49     13.37
04/30 18:00      0.00    911.50     50664     11195         7     48.18    192.60      9.60     76.46    127.20     13.49     13.37
04/30 19:00      0.00    911.68     51558     10708         7     47.84    200.70      7.50     79.90     63.80     13.49     13.37
04/30 20:00      0.00    911.85     52402     10587         7     46.53    192.90      5.40     88.38      8.40     13.49     13.37
04/30 21:00      0.01    912.02     53248     10357         7     45.46    192.30      4.00     94.66      0.00     13.49     13.37
04/30 22:00      0.00    912.17     54009      ----      ----     45.72    196.10      3.90     97.47      0.00     13.49     13.37
04/30 23:00      ----      ----      ----      ----      ----      ----      ----      ----      ----      ----      ----      ----